createdAt,value
2023-01-26T00:02:15.109Z,25.50
2023-01-26T00:05:00.646Z,24.95
2023-01-26T00:07:46.052Z,25.40
2023-01-26T00:10:31.734Z,25.92
2023-01-26T00:13:19.726Z,26.73
2023-01-26T00:16:09.697Z,28.15
2023-01-26T00:18:55.168Z,24.33
2023-01-26T00:21:40.669Z,26.40
2023-01-26T00:24:26.183Z,22.30
2023-01-26T00:27:11.570Z,29.05
2023-01-26T00:29:57.080Z,25.58
2023-01-26T00:32:43.447Z,25.15
2023-01-26T00:35:28.805Z,27.00
2023-01-26T00:38:14.585Z,27.25
2023-01-26T00:41:00.097Z,23.90
2023-01-26T00:43:45.522Z,25.15
2023-01-26T00:46:32.078Z,23.75
2023-01-26T00:49:18.978Z,25.17
2023-01-26T00:52:05.063Z,22.63
2023-01-26T00:54:50.639Z,24.33
2023-01-26T00:57:36.136Z,23.15
2023-01-26T01:00:22.361Z,22.85
2023-01-26T01:03:08.135Z,21.98
2023-01-26T01:05:53.473Z,22.30
2023-01-26T01:08:38.965Z,21.63
2023-01-26T01:11:25.254Z,23.42
2023-01-26T01:14:10.785Z,21.92
2023-01-26T01:16:56.552Z,21.70
2023-01-26T01:19:41.992Z,20.35
2023-01-26T01:22:27.575Z,22.30
2023-01-26T01:25:13.268Z,20.50
2023-01-26T01:27:58.864Z,21.95
2023-01-26T01:30:44.432Z,21.80
2023-01-26T01:33:30.013Z,21.25
2023-01-26T01:36:17.135Z,21.02
2023-01-26T01:39:02.638Z,20.98
2023-01-26T01:41:48.279Z,19.90
2023-01-26T01:44:38.634Z,22.05
2023-01-26T01:50:18.234Z,21.20
2023-01-26T01:53:05.275Z,19.63
2023-01-26T01:55:58.698Z,21.33
2023-01-26T01:58:45.580Z,19.52
2023-01-26T02:01:31.563Z,22.33
2023-01-26T02:04:21.436Z,21.15
2023-01-26T02:07:07.680Z,22.42
2023-01-26T02:10:12.417Z,19.70
2023-01-26T02:13:01.819Z,21.45
2023-01-26T02:15:48.153Z,20.35
2023-01-26T02:18:33.918Z,19.33
2023-01-26T02:21:22.208Z,20.52
2023-01-26T02:24:25.397Z,20.08
2023-01-26T02:27:11.029Z,20.65
2023-01-26T02:29:59.729Z,18.60
2023-01-26T02:32:46.663Z,18.63
2023-01-26T02:35:32.905Z,21.77
2023-01-26T02:38:23.427Z,23.88
2023-01-26T02:41:13.100Z,18.40
2023-01-26T02:43:58.624Z,19.98
2023-01-26T02:46:45.168Z,20.10
2023-01-26T02:49:47.154Z,22.73
2023-01-26T02:52:33.765Z,18.00
2023-01-26T02:55:31.051Z,15.57
2023-01-26T02:58:16.851Z,16.55
2023-01-26T03:01:02.326Z,17.98
2023-01-26T03:03:47.931Z,17.35
2023-01-26T03:06:33.860Z,16.60
2023-01-26T03:09:19.349Z,15.93
2023-01-26T03:12:06.254Z,17.05
2023-01-26T03:15:17.771Z,16.55
2023-01-26T03:18:25.735Z,17.17
2023-01-26T03:21:35.273Z,17.45
2023-01-26T03:24:40.321Z,17.90
2023-01-26T03:27:28.683Z,18.35
2023-01-26T03:30:20.143Z,20.00
2023-01-26T03:33:07.168Z,17.50
2023-01-26T03:35:54.512Z,16.40
2023-01-26T03:38:41.340Z,15.68
2023-01-26T03:41:45.486Z,17.98
2023-01-26T03:44:49.446Z,16.02
2023-01-26T03:47:55.671Z,17.00
2023-01-26T03:51:00.657Z,19.95
2023-01-26T03:54:04.752Z,17.67
2023-01-26T03:56:50.309Z,17.27
2023-01-26T03:59:39.072Z,15.35
2023-01-26T04:02:53.842Z,17.60
2023-01-26T04:06:16.219Z,15.82
2023-01-26T04:09:05.109Z,17.10
2023-01-26T04:11:50.473Z,15.40
2023-01-26T04:14:54.719Z,12.07
2023-01-26T04:18:01.789Z,15.70
2023-01-26T04:21:05.924Z,15.27
2023-01-26T04:23:57.314Z,17.38
2023-01-26T04:26:44.100Z,17.10
2023-01-26T04:29:33.987Z,12.60
2023-01-26T04:32:19.471Z,13.48
2023-01-26T04:35:07.443Z,12.43
2023-01-26T04:37:53.495Z,13.65
2023-01-26T04:40:39.033Z,16.20
2023-01-26T04:43:24.714Z,14.45
2023-01-26T04:46:10.805Z,13.45
2023-01-26T04:48:57.991Z,14.32
2023-01-26T04:51:43.355Z,15.60
2023-01-26T04:54:29.242Z,16.25
2023-01-26T04:57:14.705Z,15.55
2023-01-26T05:02:50.713Z,16.80
2023-01-26T05:05:39.721Z,17.20
2023-01-26T05:08:25.710Z,15.33
2023-01-26T05:11:11.376Z,13.57
2023-01-26T05:14:04.270Z,16.15
2023-01-26T05:17:16.074Z,14.52
2023-01-26T05:20:08.154Z,13.00
2023-01-26T05:22:59.058Z,14.88
2023-01-26T05:25:47.541Z,13.13
2023-01-26T05:28:34.586Z,15.30
2023-01-26T05:31:20.165Z,13.23
2023-01-26T05:34:06.032Z,14.52
2023-01-26T05:36:54.166Z,13.30
2023-01-26T05:39:39.721Z,12.00
2023-01-26T05:42:26.945Z,12.88
2023-01-26T05:45:25.946Z,13.10
2023-01-26T05:48:14.941Z,12.50
2023-01-26T05:51:03.027Z,14.07
2023-01-26T05:53:50.931Z,11.73
2023-01-26T05:56:36.615Z,10.60
2023-01-26T05:59:24.014Z,12.85
2023-01-26T06:02:11.488Z,11.68
2023-01-26T06:04:57.543Z,11.65
2023-01-26T06:07:42.963Z,11.85
2023-01-26T06:10:35.938Z,13.15
2023-01-26T06:13:33.403Z,12.30
2023-01-26T06:16:27.661Z,13.30
2023-01-26T06:19:14.203Z,11.73
2023-01-26T06:22:02.920Z,10.88
2023-01-26T06:24:50.085Z,10.45
2023-01-26T06:27:36.091Z,14.27
2023-01-26T06:30:29.108Z,13.77
2023-01-26T06:33:19.622Z,13.80
2023-01-26T06:36:09.000Z,13.85
2023-01-26T06:38:56.680Z,15.10
2023-01-26T06:41:46.409Z,10.60
2023-01-26T06:44:32.062Z,12.05
2023-01-26T06:47:17.475Z,13.57
2023-01-26T06:50:04.261Z,11.07
2023-01-26T06:52:59.996Z,12.95
2023-01-26T06:55:59.554Z,15.27
2023-01-26T06:59:09.780Z,12.55
2023-01-26T07:02:22.375Z,13.88
2023-01-26T07:05:08.584Z,17.15
2023-01-26T07:07:54.037Z,14.23
2023-01-26T07:10:39.836Z,13.80
2023-01-26T07:13:25.174Z,14.60
2023-01-26T07:16:13.227Z,15.75
2023-01-26T07:18:58.635Z,12.45
2023-01-26T07:21:44.018Z,13.75
2023-01-26T07:24:29.726Z,14.57
2023-01-26T07:27:15.062Z,13.70
2023-01-26T07:30:00.354Z,13.25
2023-01-26T07:32:45.924Z,13.88
2023-01-26T07:35:31.372Z,13.57
2023-01-26T07:38:16.715Z,15.27
2023-01-26T07:41:07.972Z,13.15
2023-01-26T07:43:53.706Z,14.80
2023-01-26T07:46:39.964Z,15.88
2023-01-26T07:49:25.225Z,14.50
2023-01-26T07:52:10.725Z,15.02
2023-01-26T07:54:56.232Z,14.82
2023-01-26T07:57:41.739Z,14.15
2023-01-26T08:00:27.330Z,17.75
2023-01-26T08:03:13.844Z,18.42
2023-01-26T08:05:59.456Z,17.13
2023-01-26T08:08:50.907Z,16.90
2023-01-26T08:11:36.778Z,14.35
2023-01-26T08:14:22.277Z,15.50
2023-01-26T08:17:07.680Z,14.90
2023-01-26T08:19:53.232Z,13.93
2023-01-26T08:22:38.728Z,15.10
2023-01-26T08:25:24.269Z,14.77
2023-01-26T08:28:09.744Z,15.85
2023-01-26T08:30:56.095Z,13.65
2023-01-26T08:33:43.393Z,13.70
2023-01-26T08:36:28.956Z,14.75
2023-01-26T08:39:14.568Z,13.98
2023-01-26T08:42:00.104Z,16.50
2023-01-26T08:44:45.384Z,15.93
2023-01-26T08:47:30.867Z,16.15
2023-01-26T08:50:16.367Z,15.05
2023-01-26T08:53:02.084Z,15.30
2023-01-26T08:55:47.780Z,14.13
2023-01-26T08:58:33.777Z,13.35
2023-01-26T09:01:19.481Z,13.68
2023-01-26T09:04:04.893Z,13.20
2023-01-26T09:06:50.292Z,14.82
2023-01-26T09:09:35.819Z,11.80
2023-01-26T09:12:21.216Z,11.70
2023-01-26T09:15:07.387Z,12.85
2023-01-26T09:17:52.966Z,12.30
2023-01-26T09:20:39.540Z,12.85
2023-01-26T09:23:25.300Z,14.95
2023-01-26T09:26:11.509Z,12.00
2023-01-26T09:28:56.900Z,13.35
2023-01-26T09:31:42.684Z,12.82
2023-01-26T09:34:28.609Z,13.02
2023-01-26T09:37:14.694Z,11.82
2023-01-26T09:40:00.148Z,12.57
2023-01-26T09:42:51.803Z,11.45
2023-01-26T09:45:51.022Z,11.13
2023-01-26T09:48:50.504Z,10.60
2023-01-26T09:51:39.816Z,13.00
2023-01-26T09:54:38.340Z,13.43
2023-01-26T09:57:32.238Z,12.10
2023-01-26T10:00:33.311Z,13.50
2023-01-26T10:03:31.253Z,15.68
2023-01-26T10:06:31.307Z,14.50
2023-01-26T10:09:45.169Z,17.52
2023-01-26T10:12:36.360Z,14.77
2023-01-26T10:15:31.022Z,15.93
2023-01-26T10:18:23.948Z,14.88
2023-01-26T10:21:11.920Z,17.80
2023-01-26T10:24:00.652Z,20.10
2023-01-26T10:26:46.570Z,18.00
2023-01-26T10:29:32.136Z,18.77
2023-01-26T10:32:18.440Z,19.25
2023-01-26T10:35:03.945Z,17.02
2023-01-26T10:37:50.268Z,15.90
2023-01-26T10:40:45.422Z,15.77
2023-01-26T10:43:39.419Z,18.67
2023-01-26T10:46:38.222Z,16.08
2023-01-26T10:49:24.241Z,14.05
2023-01-26T10:52:17.807Z,16.23
2023-01-26T10:55:09.666Z,16.80
2023-01-26T10:57:55.617Z,15.98
2023-01-26T11:00:41.274Z,16.33
2023-01-26T11:03:28.666Z,15.93
2023-01-26T11:06:16.673Z,15.00
2023-01-26T11:09:14.977Z,16.27
2023-01-26T11:12:05.962Z,16.77
2023-01-26T11:15:15.157Z,15.93
2023-01-26T11:18:45.168Z,16.00
2023-01-26T11:21:56.173Z,17.70
2023-01-26T11:24:52.292Z,18.23
2023-01-26T11:27:53.296Z,20.98
2023-01-26T11:31:05.023Z,20.38
2023-01-26T11:34:01.827Z,17.77
2023-01-26T11:37:15.921Z,17.67
2023-01-26T11:40:12.880Z,17.92
2023-01-26T11:43:35.346Z,17.35
2023-01-26T11:46:53.177Z,18.38
2023-01-26T11:49:50.309Z,18.67
2023-01-26T11:53:03.121Z,18.60
2023-01-26T11:55:57.480Z,16.35
2023-01-26T11:58:45.563Z,15.40
2023-01-26T12:01:58.440Z,18.60
2023-01-26T12:04:46.867Z,17.83
2023-01-26T12:07:54.611Z,16.60
2023-01-26T12:10:50.922Z,17.58
2023-01-26T12:13:42.229Z,16.98
2023-01-26T12:16:34.040Z,15.27
2023-01-26T12:19:26.344Z,16.15
2023-01-26T12:22:20.955Z,16.40
2023-01-26T12:25:32.314Z,19.40
2023-01-26T12:29:06.162Z,18.10
2023-01-26T12:31:58.982Z,16.65
2023-01-26T12:34:44.826Z,18.08
2023-01-26T12:37:39.788Z,14.88
2023-01-26T12:40:31.187Z,16.90
2023-01-26T12:43:31.762Z,17.33
2023-01-26T12:46:18.045Z,16.90
2023-01-26T12:49:44.248Z,16.00
2023-01-26T12:52:40.296Z,15.82
2023-01-26T12:55:42.894Z,16.95
2023-01-26T12:58:36.897Z,15.93
2023-01-26T13:01:26.056Z,16.52
2023-01-26T13:04:14.484Z,16.30
2023-01-26T13:07:24.278Z,15.13
2023-01-26T13:10:17.764Z,17.50
2023-01-26T13:13:18.547Z,15.27
2023-01-26T13:16:16.129Z,16.48
2023-01-26T13:19:02.960Z,16.10
2023-01-26T13:21:48.416Z,16.63
2023-01-26T13:24:33.923Z,14.60
2023-01-26T13:27:28.485Z,15.02
2023-01-26T13:30:23.399Z,15.93
2023-01-26T13:33:16.724Z,15.20
2023-01-26T13:36:17.033Z,14.30
2023-01-26T13:39:12.002Z,13.43
2023-01-26T13:41:57.811Z,15.95
2023-01-26T13:44:49.722Z,14.65
2023-01-26T13:47:43.999Z,14.98
2023-01-26T13:50:29.390Z,15.43
2023-01-26T13:53:43.740Z,15.15
2023-01-26T13:56:34.915Z,13.27
2023-01-26T13:59:21.823Z,15.60
2023-01-26T14:02:11.803Z,16.02
2023-01-26T14:04:58.318Z,14.77
2023-01-26T14:07:44.730Z,14.77
2023-01-26T14:10:31.172Z,16.70
2023-01-26T14:13:38.839Z,16.77
2023-01-26T14:16:26.896Z,16.05
2023-01-26T14:19:21.302Z,16.45
2023-01-26T14:22:13.477Z,17.73
2023-01-26T14:24:58.890Z,16.42
2023-01-26T14:27:44.238Z,16.10
2023-01-26T14:30:34.735Z,16.45
2023-01-26T14:33:22.269Z,21.00
2023-01-26T14:36:13.820Z,20.17
2023-01-26T14:39:01.047Z,16.58
2023-01-26T14:41:47.267Z,18.92
2023-01-26T14:44:32.996Z,19.13
2023-01-26T14:47:30.101Z,18.17
2023-01-26T14:50:28.192Z,17.70
2023-01-26T14:53:19.913Z,18.90
2023-01-26T14:56:05.598Z,19.65
2023-01-26T14:58:53.862Z,22.40
2023-01-26T15:01:39.341Z,18.83
2023-01-26T15:04:34.507Z,16.80
2023-01-26T15:07:28.585Z,20.75
2023-01-26T15:11:16.465Z,16.98
2023-01-26T15:14:01.666Z,18.35
2023-01-26T15:16:54.066Z,17.95
2023-01-26T15:19:41.416Z,15.18
2023-01-26T15:22:27.346Z,16.13
2023-01-26T15:25:27.924Z,17.73
2023-01-26T15:28:23.425Z,14.63
2023-01-26T15:31:20.576Z,15.25
2023-01-26T15:34:26.746Z,14.32
2023-01-26T15:37:32.253Z,15.75
2023-01-26T15:40:17.989Z,12.10
2023-01-26T15:43:17.844Z,16.52
2023-01-26T15:46:03.309Z,14.20
2023-01-26T15:48:49.303Z,13.88
2023-01-26T15:51:36.126Z,16.92
2023-01-26T15:54:21.566Z,13.90
2023-01-26T15:57:07.143Z,16.08
2023-01-26T15:59:52.600Z,15.52
2023-01-26T16:02:38.246Z,17.08
2023-01-26T16:05:25.040Z,15.90
2023-01-26T16:08:10.809Z,16.55
2023-01-26T16:10:57.466Z,17.80
2023-01-26T16:13:57.319Z,17.00
2023-01-26T16:16:47.725Z,18.20
2023-01-26T16:19:35.535Z,16.75
2023-01-26T16:22:21.240Z,17.73
2023-01-26T16:25:23.261Z,19.83
2023-01-26T16:28:08.404Z,18.55
2023-01-26T16:30:54.082Z,17.80
2023-01-26T16:33:39.622Z,16.75
2023-01-26T16:36:25.284Z,17.67
2023-01-26T16:39:10.563Z,17.95
2023-01-26T16:41:56.040Z,18.40
2023-01-26T16:44:41.457Z,18.35
2023-01-26T16:47:27.128Z,17.05
2023-01-26T16:50:12.643Z,18.23
2023-01-26T16:52:58.352Z,18.42
2023-01-26T16:55:43.595Z,17.73
2023-01-26T16:58:30.524Z,17.73
2023-01-26T17:01:20.645Z,16.63
2023-01-26T17:04:06.359Z,17.25
2023-01-26T17:06:51.822Z,17.83
2023-01-26T17:09:38.076Z,18.38
2023-01-26T17:12:23.305Z,17.17
2023-01-26T17:15:11.502Z,17.25
2023-01-26T17:17:57.287Z,16.48
2023-01-26T17:20:43.023Z,17.05
2023-01-26T17:23:28.422Z,20.10
2023-01-26T17:26:16.954Z,17.55
2023-01-26T17:29:02.893Z,17.60
2023-01-26T17:31:48.476Z,16.33
2023-01-26T17:34:34.110Z,19.35
2023-01-26T17:37:20.629Z,17.33
2023-01-26T17:40:07.380Z,17.85
2023-01-26T17:42:52.889Z,20.90
2023-01-26T17:45:38.434Z,17.48
2023-01-26T17:48:23.972Z,19.38
2023-01-26T17:51:12.664Z,19.08
2023-01-26T17:53:57.987Z,18.85
2023-01-26T17:56:43.460Z,21.40
2023-01-26T17:59:29.053Z,21.95
2023-01-26T18:02:14.586Z,18.35
2023-01-26T18:05:00.157Z,20.10
2023-01-26T18:07:45.621Z,19.08
2023-01-26T18:10:31.195Z,22.25
2023-01-26T18:13:17.059Z,17.08
2023-01-26T18:16:02.609Z,17.35
2023-01-26T18:18:48.524Z,21.55
2023-01-26T18:21:34.830Z,17.98
2023-01-26T18:24:20.232Z,18.70
2023-01-26T18:27:05.915Z,19.88
2023-01-26T18:29:51.377Z,23.30
2023-01-26T18:32:37.263Z,21.65
2023-01-26T18:35:22.500Z,21.90
2023-01-26T18:38:08.024Z,28.38
2023-01-26T18:40:53.547Z,23.92
2023-01-26T18:43:39.575Z,24.23
2023-01-26T18:46:26.497Z,23.27
2023-01-26T18:49:12.260Z,25.05
2023-01-26T18:51:58.063Z,23.42
2023-01-26T18:54:43.543Z,19.80
2023-01-26T18:57:28.992Z,24.05
2023-01-26T19:00:14.627Z,21.90
2023-01-26T19:03:00.211Z,20.73
2023-01-26T19:05:46.655Z,17.40
2023-01-26T19:08:34.303Z,19.05
2023-01-26T19:11:19.737Z,18.23
2023-01-26T19:14:06.910Z,18.40
2023-01-26T19:16:52.438Z,18.92
2023-01-26T19:19:39.580Z,17.95
2023-01-26T19:22:25.304Z,18.10
2023-01-26T19:25:10.979Z,16.73
2023-01-26T19:27:56.889Z,17.88
2023-01-26T19:30:43.485Z,12.90
2023-01-26T19:33:29.072Z,12.68
2023-01-26T19:36:14.516Z,12.77
2023-01-26T19:39:01.368Z,13.02
2023-01-26T19:41:46.606Z,11.40
2023-01-26T19:44:32.092Z,11.35
2023-01-26T19:47:17.607Z,12.75
2023-01-26T19:50:03.236Z,10.10
2023-01-26T19:52:49.210Z,10.45
2023-01-26T19:55:34.791Z,11.82
2023-01-26T19:58:20.254Z,13.20
2023-01-26T20:01:08.811Z,10.00
2023-01-26T20:03:58.773Z,11.20
2023-01-26T20:06:48.261Z,11.50
2023-01-26T20:09:34.646Z,10.00
2023-01-26T20:12:20.372Z,10.35
2023-01-26T20:15:06.575Z,78.57
2023-01-26T20:17:52.286Z,15.55
2023-01-26T20:20:38.363Z,9.52
2023-01-26T20:23:23.767Z,9.23
2023-01-26T20:26:10.912Z,8.35
2023-01-26T20:28:58.222Z,7.82
2023-01-26T20:31:45.513Z,7.55
2023-01-26T20:34:31.379Z,8.85
2023-01-26T20:37:17.387Z,7.53
2023-01-26T20:40:03.062Z,10.15
2023-01-26T20:42:48.511Z,8.05
2023-01-26T20:45:33.937Z,8.40
2023-01-26T20:48:19.560Z,7.90
2023-01-26T20:51:15.581Z,8.60
2023-01-26T20:54:02.903Z,7.65
2023-01-26T20:56:50.131Z,8.50
2023-01-26T20:59:35.512Z,10.55
2023-01-26T21:02:21.223Z,8.23
2023-01-26T21:05:07.285Z,7.32
2023-01-26T21:07:52.511Z,8.15
2023-01-26T21:10:38.017Z,8.73
2023-01-26T21:13:23.617Z,5.43
2023-01-26T21:16:14.755Z,6.82
2023-01-26T21:19:00.508Z,6.25
2023-01-26T21:21:45.957Z,6.18
2023-01-26T21:24:31.649Z,6.43
2023-01-26T21:27:18.240Z,6.88
2023-01-26T21:30:04.602Z,6.30
2023-01-26T21:32:52.697Z,7.07
2023-01-26T21:35:38.106Z,6.00
2023-01-26T21:38:24.960Z,7.70
2023-01-26T21:41:31.844Z,7.18
2023-01-26T21:44:23.583Z,7.40
2023-01-26T21:47:09.068Z,6.10
2023-01-26T21:49:54.410Z,6.53
2023-01-26T21:52:57.971Z,7.82
2023-01-26T21:55:43.838Z,5.88
2023-01-26T21:58:47.842Z,6.20
2023-01-26T22:01:35.705Z,6.43
2023-01-26T22:04:25.995Z,8.07
2023-01-26T22:07:11.608Z,5.88
2023-01-26T22:09:57.081Z,6.70
2023-01-26T22:12:42.516Z,5.93
2023-01-26T22:15:28.100Z,5.75
2023-01-26T22:18:13.733Z,7.20
2023-01-26T22:21:00.143Z,6.47
2023-01-26T22:23:46.224Z,6.18
2023-01-26T22:26:32.034Z,6.95
2023-01-26T22:29:17.781Z,7.03
2023-01-26T22:32:03.762Z,7.53
2023-01-26T22:34:49.425Z,8.98
2023-01-26T22:37:34.865Z,7.25
2023-01-26T22:40:20.219Z,6.50
2023-01-26T22:43:05.792Z,9.10
2023-01-26T22:45:51.356Z,7.88
2023-01-26T22:48:37.998Z,7.03
2023-01-26T22:51:26.429Z,7.70
2023-01-26T22:54:12.112Z,8.25
2023-01-26T22:56:57.598Z,8.35
2023-01-26T22:59:43.091Z,8.10
2023-01-26T23:02:28.582Z,8.20
2023-01-26T23:05:14.180Z,10.32
2023-01-26T23:08:00.698Z,8.63
2023-01-26T23:10:46.108Z,7.38
2023-01-26T23:13:31.800Z,8.27
2023-01-26T23:16:18.179Z,10.75
2023-01-26T23:19:03.902Z,8.50
2023-01-26T23:21:49.401Z,8.27
2023-01-26T23:24:35.004Z,10.80
2023-01-26T23:27:20.538Z,7.80
2023-01-26T23:30:06.424Z,10.23
2023-01-26T23:32:51.883Z,9.05
2023-01-26T23:35:37.651Z,8.93
2023-01-26T23:38:24.460Z,9.02
2023-01-26T23:41:10.269Z,8.73
2023-01-26T23:43:55.719Z,8.38
2023-01-26T23:46:41.244Z,8.88
2023-01-26T23:49:26.484Z,10.18
2023-01-26T23:52:11.873Z,8.57
2023-01-26T23:54:57.408Z,8.35
2023-01-26T23:57:43.010Z,8.68
